Terminal Aerodrome Forecast
Issued by NWS

Home | Current Version | Previous Version | Text Only | Print | Product List | Glossary On
Versions: 1 2 3 4 5 6 7 8 9 10 11 12 13 14 15 16 17 18 19 20 21 22 23 24 25
000
FTUS44 KLIX 221727
TAFHUM
TAF
KHUM 221727Z 2218/2318 05005KT P6SM SCT030
     FM221900 07007KT P6SM VCTS SCT040CB
     FM230000 00000KT P6SM FEW015 SCT250
      TEMPO 2310/2313 5SM BR
     FM231400 05006KT P6SM FEW030=

USA.gov is the U.S. government's official web portal to all federal, state and local government web resources and services.